Aslan — WDE7373 — position and weather

sailwx.info

Track history (hours):
 
Tides and Currents Weather Stations Pressure Air Temp Water Temp Dewpoint Dewpoint Depression Visibility Wind Speed Wind Dir Waves Ship Positions

Aslan

Owner: AMTEC Marine LLC, Bronxville, NY. More information available from US FCC via Universal Licensing System and Coast Guard Vessel Documentation Center.

Last reported at 2014-Jul-12 10:33 UTC. Time now 2014-Oct-24 07:02 UTC.
Position N 41°40' W 070°41'.
Warning: this ship's position is months out of date.

; draft 4 m.

MMSI: 367392490.

Date/timePositionNaut miles runAvg speedWind from/ knotsBaromVisibWave heightAir tempDewpointWater temp
2014-Jul-12 10:33N 41°40' W 070°41'8 8.4
2014-Jul-12 09:33N 41°33' W 070°48'8 8.2
2014-Jul-12 08:33N 41°27' W 070°54'1 1.3
2014-Jul-12 07:33N 41°25' W 070°55'0 0.0
2014-Jul-12 06:33N 41°25' W 070°55'0 0.0
2014-Jul-12 05:33N 41°25' W 070°55'0 0.0
2014-Jul-12 04:33N 41°25' W 070°55'0 0.0
2014-Jul-12 03:33N 41°25' W 070°55'0 0.0
2014-Jul-12 02:33N 41°25' W 070°55'0 0.0
2014-Jul-12 01:33N 41°25' W 070°55'0 0.0
2014-Jul-12 00:33N 41°25' W 070°55'2 2.1
2014-Jul-11 23:27N 41°27' W 070°57'7 7.5
2014-Jul-11 22:33N 41°27' W 071°06'8 7.6
2014-Jul-11 21:33N 41°26' W 071°16'5 4.8
2014-Jul-11 20:33N 41°28' W 071°22'3 2.4
2014-Jul-11 19:29N 41°29' W 071°19'0 0.1
2014-Jul-11 18:32N 41°29' W 071°20'0 0.0
2014-Jul-11 17:29N 41°29' W 071°20'0 0.0
2014-Jul-11 16:31N 41°29' W 071°20'  
Track history (hours):
 
Tides and Currents Weather Stations Pressure Air Temp Water Temp Dewpoint Dewpoint Depression Visibility Wind Speed Wind Dir Waves Ship Positions

Aslan

Owner: AMTEC Marine LLC, Bronxville, NY. More information available from US FCC via Universal Licensing System and Coast Guard Vessel Documentation Center.

Last reported at 2014-Jul-12 10:33 UTC. Time now 2014-Oct-24 07:02 UTC.
Position N 41°40' W 070°41'.
Warning: this ship's position is months out of date.

; draft 4 m.

MMSI: 367392490.

Date/timePositionNaut miles runAvg speedWind from/ knotsBaromVisibWave heightAir tempDewpointWater temp
2014-Jul-12 10:33N 41°40' W 070°41'8 8.4
2014-Jul-12 09:33N 41°33' W 070°48'8 8.2
2014-Jul-12 08:33N 41°27' W 070°54'1 1.3
2014-Jul-12 07:33N 41°25' W 070°55'0 0.0
2014-Jul-12 06:33N 41°25' W 070°55'0 0.0
2014-Jul-12 05:33N 41°25' W 070°55'0 0.0
2014-Jul-12 04:33N 41°25' W 070°55'0 0.0
2014-Jul-12 03:33N 41°25' W 070°55'0 0.0
2014-Jul-12 02:33N 41°25' W 070°55'0 0.0
2014-Jul-12 01:33N 41°25' W 070°55'0 0.0
2014-Jul-12 00:33N 41°25' W 070°55'2 2.1
2014-Jul-11 23:27N 41°27' W 070°57'7 7.5
2014-Jul-11 22:33N 41°27' W 071°06'8 7.6
2014-Jul-11 21:33N 41°26' W 071°16'5 4.8
2014-Jul-11 20:33N 41°28' W 071°22'3 2.4
2014-Jul-11 19:29N 41°29' W 071°19'0 0.1
2014-Jul-11 18:32N 41°29' W 071°20'0 0.0
2014-Jul-11 17:29N 41°29' W 071°20'0 0.0
2014-Jul-11 16:31N 41°29' W 071°20'  

Dump ship's entire track history